createdAt,value
2018-01-17T00:00:36.936Z,0
2018-01-17T00:01:39.341Z,0
2018-01-17T00:02:42.051Z,0
2018-01-17T00:03:44.475Z,0
2018-01-17T00:04:46.916Z,0
2018-01-17T00:05:49.287Z,0
2018-01-17T00:06:51.696Z,0
2018-01-17T00:07:54.101Z,0
2018-01-17T00:08:56.793Z,0
2018-01-17T00:09:59.202Z,0
2018-01-17T00:11:01.874Z,0
2018-01-17T00:12:04.284Z,0
2018-01-17T00:13:06.699Z,0
2018-01-17T00:14:09.116Z,0
2018-01-17T00:15:11.526Z,0
2018-01-17T00:16:13.929Z,0
2018-01-17T00:17:16.338Z,0
2018-01-17T00:18:18.740Z,0
2018-01-17T00:19:21.141Z,0
2018-01-17T00:20:23.568Z,0
2018-01-17T00:21:26.243Z,0
2018-01-17T00:22:28.948Z,0
2018-01-17T00:23:31.356Z,0
2018-01-17T00:24:33.762Z,0
2018-01-17T00:25:36.174Z,0
2018-01-17T00:26:38.587Z,0
2018-01-17T00:27:40.981Z,0
2018-01-17T00:28:43.399Z,0
2018-01-17T00:29:46.386Z,0
2018-01-17T00:30:49.071Z,0
2018-01-17T00:31:51.487Z,0
2018-01-17T00:32:53.892Z,0
2018-01-17T00:33:56.296Z,0
2018-01-17T00:34:58.704Z,0
2018-01-17T00:36:01.102Z,0
2018-01-17T00:37:03.524Z,0
2018-01-17T00:38:05.925Z,0
2018-01-17T00:39:08.374Z,0
2018-01-17T00:40:10.790Z,0
2018-01-17T00:41:13.206Z,0
2018-01-17T00:42:15.611Z,0
2018-01-17T00:43:18.031Z,0
2018-01-17T00:44:20.427Z,0
2018-01-17T00:45:23.123Z,0
2018-01-17T00:46:25.523Z,0
2018-01-17T00:47:27.933Z,0
2018-01-17T00:48:30.631Z,0
2018-01-17T00:49:33.322Z,0
2018-01-17T00:50:35.717Z,0
2018-01-17T00:51:38.141Z,0
2018-01-17T00:52:40.551Z,0
2018-01-17T00:53:42.954Z,0
2018-01-17T00:54:45.368Z,0
2018-01-17T00:55:47.770Z,0
2018-01-17T00:56:50.184Z,0
2018-01-17T00:57:52.586Z,0
2018-01-17T00:58:55.001Z,0
2018-01-17T00:59:57.402Z,0
2018-01-17T01:00:59.810Z,0
2018-01-17T01:02:02.507Z,0
2018-01-17T01:03:04.910Z,0
2018-01-17T01:04:07.308Z,0
2018-01-17T01:05:09.714Z,0
2018-01-17T01:06:12.128Z,0
2018-01-17T01:07:14.536Z,0
2018-01-17T01:08:16.948Z,0
2018-01-17T01:09:19.633Z,0
2018-01-17T01:10:22.041Z,0
2018-01-17T01:11:24.451Z,0
2018-01-17T01:12:26.849Z,0
2018-01-17T01:13:29.258Z,0
2018-01-17T01:14:31.945Z,0
2018-01-17T01:15:34.338Z,0
2018-01-17T01:16:36.748Z,0
2018-01-17T01:17:39.168Z,0
2018-01-17T01:18:41.570Z,0
2018-01-17T01:19:43.980Z,0
2018-01-17T01:20:46.388Z,0
2018-01-17T01:21:49.084Z,0
2018-01-17T01:22:51.492Z,0
2018-01-17T01:23:53.902Z,0
2018-01-17T01:24:56.291Z,0
2018-01-17T01:25:58.705Z,0
2018-01-17T01:27:01.124Z,0
2018-01-17T01:28:03.526Z,0
2018-01-17T01:29:05.927Z,0
2018-01-17T01:30:08.335Z,0
2018-01-17T01:31:10.748Z,0
2018-01-17T01:32:13.154Z,0
2018-01-17T01:33:15.848Z,0
2018-01-17T01:34:18.252Z,0
2018-01-17T01:35:20.665Z,0
2018-01-17T01:36:23.076Z,0
2018-01-17T01:37:25.486Z,0
2018-01-17T01:38:28.174Z,0
2018-01-17T01:39:30.574Z,0
2018-01-17T01:40:33.265Z,0
2018-01-17T01:41:35.677Z,0
2018-01-17T01:42:38.084Z,0
2018-01-17T01:43:40.480Z,0
2018-01-17T01:44:42.890Z,0
2018-01-17T01:45:45.299Z,0
2018-01-17T01:46:47.700Z,0
2018-01-17T01:47:50.102Z,0
2018-01-17T01:48:52.803Z,0
2018-01-17T01:49:55.207Z,0
2018-01-17T01:50:57.628Z,0
2018-01-17T01:52:00.031Z,0
2018-01-17T01:53:02.714Z,0
2018-01-17T01:54:05.128Z,0
2018-01-17T01:55:07.539Z,0
2018-01-17T01:56:09.952Z,0
2018-01-17T01:57:12.356Z,0
2018-01-17T01:58:14.765Z,0
2018-01-17T01:59:17.165Z,0
2018-01-17T02:00:19.590Z,0
2018-01-17T02:01:21.988Z,0
2018-01-17T02:02:24.971Z,0
2018-01-17T02:03:27.388Z,0
2018-01-17T02:04:29.797Z,0
2018-01-17T02:05:32.212Z,0
2018-01-17T02:06:34.622Z,0
2018-01-17T02:07:37.016Z,0
2018-01-17T02:08:39.427Z,0
2018-01-17T02:09:41.845Z,0
2018-01-17T02:10:44.251Z,0
2018-01-17T02:11:46.656Z,0
2018-01-17T02:12:49.356Z,0
2018-01-17T02:13:51.766Z,0
2018-01-17T02:14:54.166Z,0
2018-01-17T02:15:56.580Z,0
2018-01-17T02:16:59.275Z,0
2018-01-17T02:18:01.690Z,0
2018-01-17T02:19:04.095Z,0
2018-01-17T02:20:06.789Z,0
2018-01-17T02:21:09.194Z,0
2018-01-17T02:22:11.607Z,0
2018-01-17T02:23:14.007Z,0
2018-01-17T02:24:16.415Z,0
2018-01-17T02:25:18.823Z,0
2018-01-17T02:26:21.238Z,0
2018-01-17T02:27:23.649Z,0
2018-01-17T02:28:26.052Z,0
2018-01-17T02:29:28.753Z,0
2018-01-17T02:30:31.161Z,0
2018-01-17T02:31:33.573Z,0
2018-01-17T02:32:35.989Z,0
2018-01-17T02:33:38.389Z,0
2018-01-17T02:34:40.813Z,0
2018-01-17T02:35:43.493Z,0
2018-01-17T02:36:45.907Z,0
2018-01-17T02:37:48.596Z,0
2018-01-17T02:38:51.001Z,0
2018-01-17T02:39:53.406Z,0
2018-01-17T02:40:55.821Z,0
2018-01-17T02:41:58.227Z,0
2018-01-17T02:43:00.644Z,0
2018-01-17T02:44:03.057Z,0
2018-01-17T02:45:05.464Z,0
2018-01-17T02:46:07.876Z,0
2018-01-17T02:47:10.293Z,0
2018-01-17T02:48:12.684Z,0
2018-01-17T02:49:15.104Z,0
2018-01-17T02:50:17.514Z,0
2018-01-17T02:51:19.916Z,0
2018-01-17T02:52:22.328Z,0
2018-01-17T02:53:24.788Z,0
2018-01-17T02:54:27.139Z,0
2018-01-17T02:55:29.559Z,0
2018-01-17T02:56:31.970Z,0
2018-01-17T02:57:34.943Z,0
2018-01-17T02:58:37.641Z,0
2018-01-17T02:59:40.041Z,0
2018-01-17T03:00:42.457Z,0
2018-01-17T03:01:44.870Z,0
2018-01-17T03:02:47.276Z,0
2018-01-17T03:03:49.679Z,0
2018-01-17T03:04:52.082Z,0
2018-01-17T03:05:54.485Z,0
2018-01-17T03:06:57.198Z,0
2018-01-17T03:07:59.601Z,0
2018-01-17T03:09:02.002Z,0
2018-01-17T03:10:04.418Z,0
2018-01-17T03:11:06.834Z,0
2018-01-17T03:12:09.237Z,0
2018-01-17T03:13:11.654Z,0
2018-01-17T03:14:14.058Z,0
2018-01-17T03:15:16.469Z,0
2018-01-17T03:16:19.154Z,0
2018-01-17T03:17:21.563Z,0
2018-01-17T03:18:23.974Z,0
2018-01-17T03:19:26.438Z,0
2018-01-17T03:20:28.841Z,0
2018-01-17T03:21:31.547Z,0
2018-01-17T03:22:33.953Z,0
2018-01-17T03:23:36.369Z,0
2018-01-17T03:24:38.780Z,0
2018-01-17T03:25:41.183Z,0
2018-01-17T03:26:43.588Z,0
2018-01-17T03:27:45.994Z,0
2018-01-17T03:28:48.407Z,0
2018-01-17T03:29:50.819Z,0
2018-01-17T03:30:53.230Z,0
2018-01-17T03:31:55.627Z,0
2018-01-17T03:32:58.044Z,0
2018-01-17T03:34:00.450Z,0
2018-01-17T03:35:03.146Z,0
2018-01-17T03:36:05.563Z,0
2018-01-17T03:37:07.964Z,0
2018-01-17T03:38:10.372Z,0
2018-01-17T03:39:12.779Z,0
2018-01-17T03:40:15.170Z,0
2018-01-17T03:41:17.591Z,0
2018-01-17T03:42:19.995Z,0
2018-01-17T03:43:22.449Z,0
2018-01-17T03:44:25.099Z,0
2018-01-17T03:45:27.498Z,0
2018-01-17T03:46:29.910Z,0
2018-01-17T03:47:32.309Z,0
2018-01-17T03:48:34.729Z,0
2018-01-17T03:49:37.139Z,0
2018-01-17T03:50:39.550Z,0
2018-01-17T03:51:41.963Z,0
2018-01-17T03:52:44.368Z,0
2018-01-17T03:53:46.777Z,0
2018-01-17T03:54:49.188Z,0
2018-01-17T03:55:51.585Z,0
2018-01-17T03:56:53.999Z,0
2018-01-17T03:57:56.409Z,0
2018-01-17T03:58:58.808Z,0
2018-01-17T04:00:01.511Z,0
2018-01-17T04:01:04.502Z,0
2018-01-17T04:02:06.908Z,0
2018-01-17T04:03:09.317Z,0
2018-01-17T04:04:11.723Z,0
2018-01-17T04:05:14.129Z,0
2018-01-17T04:06:16.554Z,0
2018-01-17T04:07:18.950Z,0
2018-01-17T04:08:21.364Z,0
2018-01-17T04:09:23.772Z,0
2018-01-17T04:10:26.191Z,0
2018-01-17T04:11:28.581Z,0
2018-01-17T04:12:30.994Z,0
2018-01-17T04:13:33.413Z,0
2018-01-17T04:14:35.817Z,0
2018-01-17T04:15:38.517Z,0
2018-01-17T04:16:41.205Z,0
2018-01-17T04:17:43.614Z,0
2018-01-17T04:18:46.038Z,0
2018-01-17T04:19:48.443Z,0
2018-01-17T04:20:50.840Z,0
2018-01-17T04:21:53.255Z,0
2018-01-17T04:22:55.663Z,0
2018-01-17T04:23:58.353Z,0
2018-01-17T04:25:00.757Z,0
2018-01-17T04:26:03.156Z,0
2018-01-17T04:27:05.564Z,0
2018-01-17T04:28:07.974Z,0
2018-01-17T04:29:10.381Z,0
2018-01-17T04:30:12.786Z,0
2018-01-17T04:31:15.484Z,0
2018-01-17T04:32:18.176Z,0
2018-01-17T04:33:20.586Z,0
2018-01-17T04:34:22.994Z,0
2018-01-17T04:35:25.407Z,0
2018-01-17T04:36:27.810Z,0
2018-01-17T04:37:30.225Z,0
2018-01-17T04:38:32.634Z,0
2018-01-17T04:39:35.037Z,0
2018-01-17T04:40:37.719Z,0
2018-01-17T04:41:40.129Z,0
2018-01-17T04:42:42.542Z,0
2018-01-17T04:43:45.235Z,0
2018-01-17T04:44:47.929Z,0
2018-01-17T04:45:50.345Z,0
2018-01-17T04:46:52.737Z,0
2018-01-17T04:47:55.157Z,0
2018-01-17T04:48:57.568Z,0
2018-01-17T04:49:59.976Z,0
2018-01-17T04:51:02.387Z,0
2018-01-17T04:52:04.792Z,0
2018-01-17T04:53:07.196Z,0
2018-01-17T04:54:09.613Z,0
2018-01-17T04:55:12.018Z,0
2018-01-17T04:56:15.278Z,0
2018-01-17T04:57:18.254Z,0
2018-01-17T04:58:20.653Z,0
2018-01-17T04:59:23.353Z,0
2018-01-17T05:00:26.042Z,0
2018-01-17T05:01:28.443Z,0
2018-01-17T05:02:30.865Z,0
2018-01-17T05:03:33.263Z,0
2018-01-17T05:04:35.675Z,0
2018-01-17T05:05:38.080Z,0
2018-01-17T05:06:40.773Z,0
2018-01-17T05:07:43.174Z,0
2018-01-17T05:08:45.588Z,0
2018-01-17T05:09:47.993Z,0
2018-01-17T05:10:50.396Z,0
2018-01-17T05:11:53.087Z,0
2018-01-17T05:12:55.510Z,0
2018-01-17T05:13:57.912Z,0
2018-01-17T05:15:00.603Z,0
2018-01-17T05:16:03.006Z,0
2018-01-17T05:17:05.422Z,0
2018-01-17T05:18:07.830Z,0
2018-01-17T05:19:10.520Z,0
2018-01-17T05:20:12.924Z,0
2018-01-17T05:21:15.334Z,0
2018-01-17T05:22:17.753Z,0
2018-01-17T05:23:20.159Z,0
2018-01-17T05:24:22.573Z,0
2018-01-17T05:25:24.969Z,0
2018-01-17T05:26:27.378Z,0
2018-01-17T05:27:29.799Z,0
2018-01-17T05:28:32.204Z,0
2018-01-17T05:29:34.618Z,0
2018-01-17T05:30:37.306Z,0
2018-01-17T05:31:39.772Z,0
2018-01-17T05:32:42.748Z,0
2018-01-17T05:33:45.163Z,0
2018-01-17T05:34:47.553Z,0
2018-01-17T05:35:49.967Z,0
2018-01-17T05:36:52.685Z,0
2018-01-17T05:37:55.089Z,0
2018-01-17T05:38:57.504Z,0
2018-01-17T05:40:00.199Z,0
2018-01-17T05:41:02.612Z,0
2018-01-17T05:42:05.301Z,0
2018-01-17T05:43:07.705Z,0
2018-01-17T05:44:10.123Z,0
2018-01-17T05:45:12.530Z,0
2018-01-17T05:46:14.920Z,0
2018-01-17T05:47:17.340Z,0
2018-01-17T05:48:20.031Z,0
2018-01-17T05:49:22.449Z,0
2018-01-17T05:50:25.147Z,0
2018-01-17T05:51:27.556Z,0
2018-01-17T05:52:29.965Z,0
2018-01-17T05:53:32.378Z,0
2018-01-17T05:54:34.784Z,0
2018-01-17T05:55:37.193Z,0
2018-01-17T05:56:39.609Z,0
2018-01-17T05:57:42.007Z,0
2018-01-17T05:58:44.423Z,0
2018-01-17T05:59:46.836Z,0
2018-01-17T06:00:49.227Z,0
2018-01-17T06:01:51.647Z,0
2018-01-17T06:02:54.047Z,0
2018-01-17T06:03:56.456Z,0
2018-01-17T06:04:59.143Z,0
2018-01-17T06:06:01.552Z,0
2018-01-17T06:07:03.955Z,0
2018-01-17T06:08:06.381Z,0
2018-01-17T06:09:08.783Z,0
2018-01-17T06:10:11.175Z,0
2018-01-17T06:11:13.593Z,0
2018-01-17T06:12:15.997Z,0
2018-01-17T06:13:18.402Z,0
2018-01-17T06:14:20.808Z,0
2018-01-17T06:15:23.210Z,0
2018-01-17T06:16:25.618Z,0
2018-01-17T06:17:28.324Z,0
2018-01-17T06:18:30.727Z,0
2018-01-17T06:19:33.137Z,0
2018-01-17T06:20:35.543Z,0
2018-01-17T06:21:38.232Z,0
2018-01-17T06:22:40.634Z,0
2018-01-17T06:23:43.049Z,0
2018-01-17T06:24:45.457Z,0
2018-01-17T06:25:47.869Z,0
2018-01-17T06:26:50.556Z,0
2018-01-17T06:27:52.961Z,0
2018-01-17T06:28:55.365Z,0
2018-01-17T06:29:57.777Z,0
2018-01-17T06:31:00.178Z,0
2018-01-17T06:32:02.870Z,0
2018-01-17T06:33:05.272Z,0
2018-01-17T06:34:07.682Z,0
2018-01-17T06:35:10.090Z,0
2018-01-17T06:36:12.788Z,0
2018-01-17T06:37:15.486Z,0
2018-01-17T06:38:17.890Z,0
2018-01-17T06:39:20.294Z,0
2018-01-17T06:40:22.699Z,0
2018-01-17T06:41:25.106Z,0
2018-01-17T06:42:27.514Z,0
2018-01-17T06:43:29.918Z,0
2018-01-17T06:44:32.329Z,0
2018-01-17T06:45:34.742Z,0
2018-01-17T06:46:37.151Z,0
2018-01-17T06:47:39.870Z,0
2018-01-17T06:48:42.286Z,0
2018-01-17T06:49:44.974Z,0
2018-01-17T06:50:47.384Z,0
2018-01-17T06:51:49.784Z,0
2018-01-17T06:52:52.184Z,0
2018-01-17T06:53:54.586Z,0
2018-01-17T06:54:56.993Z,0
2018-01-17T06:55:59.403Z,0
2018-01-17T06:57:01.817Z,0
2018-01-17T06:58:04.492Z,0
2018-01-17T06:59:06.911Z,0
2018-01-17T07:00:09.603Z,0
2018-01-17T07:01:12.290Z,0
2018-01-17T07:02:14.708Z,0
2018-01-17T07:03:17.117Z,0
2018-01-17T07:04:19.519Z,0
2018-01-17T07:05:21.936Z,0
2018-01-17T07:06:24.340Z,0
2018-01-17T07:07:26.745Z,0
2018-01-17T07:08:29.150Z,0
2018-01-17T07:09:31.852Z,0
2018-01-17T07:10:34.254Z,0
2018-01-17T07:11:36.656Z,0
2018-01-17T07:12:39.072Z,0
2018-01-17T07:13:41.767Z,0
2018-01-17T07:14:44.172Z,0
2018-01-17T07:15:46.589Z,0
2018-01-17T07:16:48.977Z,0
2018-01-17T07:17:51.392Z,0
2018-01-17T07:18:54.383Z,0
2018-01-17T07:19:56.786Z,0
2018-01-17T07:20:59.192Z,0
2018-01-17T07:22:01.597Z,0
2018-01-17T07:23:03.998Z,0
2018-01-17T07:24:06.422Z,1
2018-01-17T07:25:08.821Z,1
2018-01-17T07:26:11.241Z,1
2018-01-17T07:27:13.635Z,1
2018-01-17T07:28:16.036Z,1
2018-01-17T07:29:18.440Z,1
2018-01-17T07:30:20.859Z,2
2018-01-17T07:31:23.550Z,2
2018-01-17T07:32:26.516Z,3
2018-01-17T07:33:28.936Z,3
2018-01-17T07:34:31.349Z,3
2018-01-17T07:35:33.754Z,3
2018-01-17T07:36:36.166Z,3
2018-01-17T07:37:38.585Z,3
2018-01-17T07:38:40.989Z,4
2018-01-17T07:39:43.403Z,4
2018-01-17T07:40:46.099Z,4
2018-01-17T07:41:48.510Z,4
2018-01-17T07:42:50.905Z,3
2018-01-17T07:43:53.321Z,3
2018-01-17T07:44:55.733Z,3
2018-01-17T07:45:58.144Z,4
2018-01-17T07:47:00.551Z,4
2018-01-17T07:48:03.234Z,5
2018-01-17T07:49:05.635Z,5
2018-01-17T07:50:08.059Z,4
2018-01-17T07:51:10.743Z,3
2018-01-17T07:52:13.147Z,3
2018-01-17T07:53:15.556Z,3
2018-01-17T07:54:17.964Z,2
2018-01-17T07:55:20.936Z,3
2018-01-17T07:56:23.359Z,3
2018-01-17T07:57:25.756Z,3
2018-01-17T07:58:28.171Z,3
2018-01-17T07:59:30.584Z,3
2018-01-17T08:00:32.990Z,3
2018-01-17T08:01:35.406Z,3
2018-01-17T08:02:37.810Z,4
2018-01-17T08:03:40.494Z,4
2018-01-17T08:04:42.909Z,4
2018-01-17T08:05:45.317Z,3
2018-01-17T08:06:47.717Z,4
2018-01-17T08:07:50.128Z,4
2018-01-17T08:08:52.540Z,4
2018-01-17T08:09:54.947Z,4
2018-01-17T08:10:57.356Z,5
2018-01-17T08:11:59.760Z,5
2018-01-17T08:13:02.174Z,6
2018-01-17T08:14:04.858Z,7
2018-01-17T08:15:07.677Z,8
2018-01-17T08:16:10.167Z,9
2018-01-17T08:17:12.856Z,8
2018-01-17T08:18:15.269Z,7
2018-01-17T08:19:17.682Z,6
2018-01-17T08:20:20.096Z,6
2018-01-17T08:21:22.508Z,5
2018-01-17T08:22:24.954Z,5
2018-01-17T08:23:27.406Z,6
2018-01-17T08:24:29.840Z,5
2018-01-17T08:25:32.252Z,5
2018-01-17T08:26:35.146Z,6
2018-01-17T08:27:37.575Z,6
2018-01-17T08:28:39.980Z,5
2018-01-17T08:29:42.682Z,6
2018-01-17T08:30:45.093Z,6
2018-01-17T08:31:47.497Z,5
2018-01-17T08:32:49.905Z,7
2018-01-17T08:33:52.316Z,9
2018-01-17T08:34:54.717Z,10
2018-01-17T08:35:57.127Z,13
2018-01-17T08:36:59.525Z,14
2018-01-17T08:38:01.940Z,12
2018-01-17T08:39:04.630Z,10
2018-01-17T08:40:07.312Z,8
2018-01-17T08:41:09.722Z,7
2018-01-17T08:42:12.137Z,8
2018-01-17T08:43:14.539Z,11
2018-01-17T08:44:16.951Z,11
2018-01-17T08:45:19.658Z,18
2018-01-17T08:46:22.066Z,21
2018-01-17T08:47:24.489Z,26
2018-01-17T08:48:26.894Z,27
2018-01-17T08:49:29.299Z,25
2018-01-17T08:50:31.713Z,21
2018-01-17T08:51:34.122Z,19
2018-01-17T08:52:36.524Z,21
2018-01-17T08:53:38.939Z,20
2018-01-17T08:54:41.349Z,16
2018-01-17T08:55:43.761Z,13
2018-01-17T08:56:46.177Z,17
2018-01-17T08:57:48.589Z,20
2018-01-17T08:58:50.989Z,24
2018-01-17T08:59:53.405Z,24
2018-01-17T09:00:55.816Z,23
2018-01-17T09:01:58.227Z,22
2018-01-17T09:03:00.637Z,24
2018-01-17T09:04:03.044Z,18
2018-01-17T09:05:05.447Z,16
2018-01-17T09:06:08.171Z,18
2018-01-17T09:07:10.579Z,21
2018-01-17T09:08:12.981Z,20
2018-01-17T09:09:15.394Z,22
2018-01-17T09:10:17.798Z,24
2018-01-17T09:11:20.484Z,24
2018-01-17T09:12:22.895Z,21
2018-01-17T09:13:25.303Z,21
2018-01-17T09:14:27.715Z,27
2018-01-17T09:15:30.121Z,20
2018-01-17T09:16:32.535Z,17
2018-01-17T09:17:34.940Z,13
2018-01-17T09:18:37.353Z,13
2018-01-17T09:19:40.042Z,16
2018-01-17T09:20:42.449Z,16
2018-01-17T09:21:44.868Z,17
2018-01-17T09:22:47.263Z,18
2018-01-17T09:23:49.673Z,19
2018-01-17T09:24:52.363Z,17
2018-01-17T09:25:55.068Z,16
2018-01-17T09:26:57.468Z,15
2018-01-17T09:27:59.886Z,14
2018-01-17T09:29:02.290Z,16
2018-01-17T09:30:04.704Z,15
2018-01-17T09:31:07.115Z,16
2018-01-17T09:32:09.513Z,14
2018-01-17T09:33:11.915Z,14
2018-01-17T09:34:14.323Z,16
2018-01-17T09:35:16.730Z,17
2018-01-17T09:36:19.136Z,18
2018-01-17T09:37:21.829Z,21
2018-01-17T09:38:24.243Z,20
2018-01-17T09:39:26.923Z,20
2018-01-17T09:40:29.330Z,22
2018-01-17T09:41:31.743Z,21
2018-01-17T09:42:34.152Z,21
2018-01-17T09:43:36.568Z,20
2018-01-17T09:44:38.971Z,21
2018-01-17T09:45:41.375Z,21
2018-01-17T09:46:43.806Z,24
2018-01-17T09:47:46.205Z,28
2018-01-17T09:48:48.617Z,37
2018-01-17T09:49:51.023Z,39
2018-01-17T09:50:53.436Z,37
2018-01-17T09:51:55.838Z,40
2018-01-17T09:52:58.535Z,37
2018-01-17T09:54:00.937Z,35
2018-01-17T09:55:03.348Z,33
2018-01-17T09:56:05.776Z,29
2018-01-17T09:57:08.460Z,25
2018-01-17T09:58:10.867Z,26
2018-01-17T09:59:13.272Z,30
2018-01-17T10:00:15.686Z,26
2018-01-17T10:01:18.092Z,26
2018-01-17T10:02:20.499Z,32
2018-01-17T10:03:23.186Z,26
2018-01-17T10:04:26.466Z,24
2018-01-17T10:05:28.865Z,24
2018-01-17T10:06:31.562Z,22
2018-01-17T10:07:33.964Z,20
2018-01-17T10:08:36.378Z,20
2018-01-17T10:09:39.069Z,18
2018-01-17T10:10:41.470Z,15
2018-01-17T10:11:43.879Z,16
2018-01-17T10:12:46.286Z,15
2018-01-17T10:13:48.696Z,16
2018-01-17T10:14:51.103Z,15
2018-01-17T10:15:53.515Z,16
2018-01-17T10:16:55.918Z,18
2018-01-17T10:17:58.622Z,18
2018-01-17T10:19:01.022Z,19
2018-01-17T10:20:03.426Z,19
2018-01-17T10:21:06.127Z,17
2018-01-17T10:22:08.528Z,21
2018-01-17T10:23:10.940Z,19
2018-01-17T10:24:13.352Z,21
2018-01-17T10:25:16.338Z,19
2018-01-17T10:26:18.741Z,19
2018-01-17T10:27:21.158Z,19
2018-01-17T10:28:23.841Z,19
2018-01-17T10:29:26.256Z,19
2018-01-17T10:30:28.662Z,20
2018-01-17T10:31:31.059Z,19
2018-01-17T10:32:33.468Z,21
2018-01-17T10:33:35.884Z,22
2018-01-17T10:34:38.291Z,23
2018-01-17T10:35:40.707Z,23
2018-01-17T10:36:43.106Z,27
2018-01-17T10:37:45.523Z,29
2018-01-17T10:38:47.927Z,27
2018-01-17T10:39:50.344Z,29
2018-01-17T10:40:53.320Z,33
2018-01-17T10:41:55.721Z,31
2018-01-17T10:42:58.125Z,34
2018-01-17T10:44:00.826Z,30
2018-01-17T10:45:03.232Z,33
2018-01-17T10:46:05.643Z,31
2018-01-17T10:47:08.327Z,27
2018-01-17T10:48:10.736Z,26
2018-01-17T10:49:13.421Z,21
2018-01-17T10:50:15.832Z,20
2018-01-17T10:51:18.240Z,22
2018-01-17T10:52:20.647Z,21
2018-01-17T10:53:23.060Z,22
2018-01-17T10:54:25.464Z,25
2018-01-17T10:55:28.146Z,26
2018-01-17T10:56:30.554Z,28
2018-01-17T10:57:32.961Z,24
2018-01-17T10:58:35.368Z,27
2018-01-17T10:59:38.065Z,24
2018-01-17T11:00:40.467Z,27
2018-01-17T11:01:42.877Z,28
2018-01-17T11:02:45.303Z,28
2018-01-17T11:03:47.702Z,28
2018-01-17T11:04:50.112Z,28
2018-01-17T11:05:52.523Z,26
2018-01-17T11:06:54.936Z,23
2018-01-17T11:07:57.328Z,21
2018-01-17T11:08:59.745Z,24
2018-01-17T11:10:02.474Z,20
2018-01-17T11:11:04.878Z,21
2018-01-17T11:12:07.293Z,22
2018-01-17T11:13:09.700Z,20
2018-01-17T11:14:12.104Z,23
2018-01-17T11:15:14.524Z,21
2018-01-17T11:16:16.926Z,23
2018-01-17T11:17:19.337Z,24
2018-01-17T11:18:21.740Z,24
2018-01-17T11:19:24.152Z,28
2018-01-17T11:20:26.833Z,30
2018-01-17T11:21:29.281Z,25
2018-01-17T11:22:31.935Z,26
2018-01-17T11:23:34.629Z,25
2018-01-17T11:24:37.044Z,29
2018-01-17T11:25:39.443Z,24
2018-01-17T11:26:41.848Z,23
2018-01-17T11:27:44.255Z,33
2018-01-17T11:28:46.653Z,36
2018-01-17T11:29:49.067Z,34
2018-01-17T11:30:51.474Z,34
2018-01-17T11:31:53.887Z,24
2018-01-17T11:32:56.295Z,24
2018-01-17T11:33:58.709Z,34
2018-01-17T11:35:01.423Z,30
2018-01-17T11:36:03.826Z,28
2018-01-17T11:37:06.236Z,26
2018-01-17T11:38:08.637Z,24
2018-01-17T11:39:11.348Z,21
2018-01-17T11:40:13.748Z,20
2018-01-17T11:41:16.175Z,18
2018-01-17T11:42:18.566Z,18
2018-01-17T11:43:20.977Z,18
2018-01-17T11:44:23.382Z,16
2018-01-17T11:45:25.787Z,15
2018-01-17T11:46:28.194Z,13
2018-01-17T11:47:30.889Z,14
2018-01-17T11:48:33.571Z,13
2018-01-17T11:49:36.261Z,13
2018-01-17T11:50:38.657Z,15
2018-01-17T11:51:41.071Z,18
2018-01-17T11:52:43.476Z,19
2018-01-17T11:53:45.887Z,26
2018-01-17T11:54:48.291Z,23
2018-01-17T11:55:50.709Z,18
2018-01-17T11:56:53.119Z,20
2018-01-17T11:57:55.521Z,28
2018-01-17T11:58:57.932Z,20
2018-01-17T12:00:00.333Z,19
2018-01-17T12:01:02.757Z,22
2018-01-17T12:02:05.451Z,21
2018-01-17T12:03:07.856Z,21
2018-01-17T12:04:10.266Z,23
2018-01-17T12:05:12.668Z,21
2018-01-17T12:06:15.084Z,19
2018-01-17T12:07:17.478Z,20
2018-01-17T12:08:20.174Z,21
2018-01-17T12:09:22.883Z,21
2018-01-17T12:10:25.297Z,21
2018-01-17T12:11:27.706Z,22
2018-01-17T12:12:30.109Z,23
2018-01-17T12:13:32.801Z,26
2018-01-17T12:14:35.214Z,28
2018-01-17T12:15:37.623Z,25
2018-01-17T12:16:40.019Z,25
2018-01-17T12:17:42.428Z,22
2018-01-17T12:18:44.849Z,17
2018-01-17T12:19:47.533Z,18
2018-01-17T12:20:49.941Z,18
2018-01-17T12:21:52.334Z,17
2018-01-17T12:22:54.737Z,17
2018-01-17T12:23:57.719Z,18
2018-01-17T12:25:00.407Z,19
2018-01-17T12:26:02.804Z,17
2018-01-17T12:27:05.215Z,20
2018-01-17T12:28:07.660Z,21
2018-01-17T12:29:10.040Z,19
2018-01-17T12:30:12.454Z,23
2018-01-17T12:31:14.860Z,23
2018-01-17T12:32:17.546Z,27
2018-01-17T12:33:20.352Z,29
2018-01-17T12:34:23.064Z,27
2018-01-17T12:35:25.490Z,29
2018-01-17T12:36:28.427Z,26
2018-01-17T12:37:30.840Z,36
2018-01-17T12:38:33.260Z,45
2018-01-17T12:39:35.663Z,43
2018-01-17T12:40:38.077Z,37
2018-01-17T12:41:40.522Z,27
2018-01-17T12:42:43.908Z,19
2018-01-17T12:43:46.314Z,23
2018-01-17T12:44:48.715Z,22
2018-01-17T12:45:51.409Z,30
2018-01-17T12:46:53.817Z,32
2018-01-17T12:47:56.228Z,29
2018-01-17T12:48:58.923Z,31
2018-01-17T12:50:01.323Z,23
2018-01-17T12:51:03.732Z,21
2018-01-17T12:52:06.432Z,31
2018-01-17T12:53:09.124Z,23
2018-01-17T12:54:11.534Z,29
2018-01-17T12:55:14.230Z,26
2018-01-17T12:56:16.629Z,34
2018-01-17T12:57:19.054Z,27
2018-01-17T12:58:21.457Z,19
2018-01-17T12:59:23.862Z,24
2018-01-17T13:00:26.274Z,21
2018-01-17T13:01:28.686Z,23
2018-01-17T13:02:31.097Z,23
2018-01-17T13:03:33.810Z,19
2018-01-17T13:04:36.225Z,21
2018-01-17T13:05:38.641Z,15
2018-01-17T13:06:41.035Z,12
2018-01-17T13:07:43.463Z,18
2018-01-17T13:08:45.931Z,14
2018-01-17T13:09:48.334Z,17
2018-01-17T13:10:50.743Z,19
2018-01-17T13:11:53.148Z,21
2018-01-17T13:12:55.553Z,22
2018-01-17T13:13:57.975Z,26
2018-01-17T13:15:00.391Z,28
2018-01-17T13:16:02.791Z,26
2018-01-17T13:17:05.237Z,23
2018-01-17T13:18:07.691Z,22
2018-01-17T13:19:10.107Z,21
2018-01-17T13:20:12.514Z,27
2018-01-17T13:21:14.925Z,29
2018-01-17T13:22:17.624Z,25
2018-01-17T13:23:20.044Z,21
2018-01-17T13:24:22.454Z,16
2018-01-17T13:25:24.861Z,15
2018-01-17T13:26:27.270Z,16
2018-01-17T13:27:29.673Z,17
2018-01-17T13:28:32.084Z,20
2018-01-17T13:29:34.492Z,17
2018-01-17T13:30:36.884Z,20
2018-01-17T13:31:39.297Z,20
2018-01-17T13:32:41.713Z,15
2018-01-17T13:33:44.124Z,17
2018-01-17T13:34:46.532Z,17
2018-01-17T13:35:48.937Z,17
2018-01-17T13:36:51.354Z,16
2018-01-17T13:37:53.766Z,13
2018-01-17T13:38:56.189Z,11
2018-01-17T13:39:58.590Z,10
2018-01-17T13:41:00.983Z,10
2018-01-17T13:42:03.406Z,10
2018-01-17T13:43:05.816Z,9
2018-01-17T13:44:08.229Z,10
2018-01-17T13:45:10.637Z,11
2018-01-17T13:46:13.051Z,12
2018-01-17T13:47:15.461Z,16
2018-01-17T13:48:17.872Z,15
2018-01-17T13:49:20.277Z,14
2018-01-17T13:50:22.689Z,19
2018-01-17T13:51:25.108Z,21
2018-01-17T13:52:27.803Z,19
2018-01-17T13:53:30.219Z,19
2018-01-17T13:54:32.622Z,22
2018-01-17T13:55:35.031Z,22
2018-01-17T13:56:37.451Z,24
2018-01-17T13:57:39.859Z,25
2018-01-17T13:58:42.272Z,31
2018-01-17T13:59:44.677Z,30
2018-01-17T14:00:47.087Z,32
2018-01-17T14:01:50.079Z,33
2018-01-17T14:02:52.483Z,29
2018-01-17T14:03:55.179Z,29
2018-01-17T14:04:57.871Z,24
2018-01-17T14:06:00.542Z,21
2018-01-17T14:07:02.965Z,16
2018-01-17T14:08:05.374Z,17
2018-01-17T14:09:07.788Z,20
2018-01-17T14:10:10.193Z,24
2018-01-17T14:11:12.600Z,31
2018-01-17T14:12:15.008Z,27
2018-01-17T14:13:17.421Z,25
2018-01-17T14:14:19.827Z,27
2018-01-17T14:15:22.231Z,27
2018-01-17T14:16:24.647Z,23
2018-01-17T14:17:27.346Z,25
2018-01-17T14:18:29.764Z,26
2018-01-17T14:19:32.179Z,26
2018-01-17T14:20:34.574Z,22
2018-01-17T14:21:36.992Z,19
2018-01-17T14:22:39.396Z,18
2018-01-17T14:23:41.805Z,22
2018-01-17T14:24:44.213Z,25
2018-01-17T14:25:46.675Z,26
2018-01-17T14:26:49.081Z,26
2018-01-17T14:27:51.505Z,28
2018-01-17T14:28:53.900Z,25
2018-01-17T14:29:56.302Z,24
2018-01-17T14:30:59.299Z,22
2018-01-17T14:32:01.704Z,21
2018-01-17T14:33:04.114Z,21
2018-01-17T14:34:06.522Z,20
2018-01-17T14:35:08.933Z,18
2018-01-17T14:36:11.343Z,17
2018-01-17T14:37:14.047Z,16
2018-01-17T14:38:16.739Z,16
2018-01-17T14:39:19.136Z,15
2018-01-17T14:40:21.558Z,15
2018-01-17T14:41:24.288Z,18
2018-01-17T14:42:26.656Z,17
2018-01-17T14:43:29.064Z,17
2018-01-17T14:44:31.476Z,16
2018-01-17T14:45:33.877Z,15
2018-01-17T14:46:36.306Z,14
2018-01-17T14:47:38.708Z,13
2018-01-17T14:48:41.113Z,13
2018-01-17T14:49:43.529Z,12
2018-01-17T14:50:45.937Z,12
2018-01-17T14:51:48.344Z,12
2018-01-17T14:52:51.036Z,11
2018-01-17T14:53:53.429Z,11
2018-01-17T14:54:55.843Z,11
2018-01-17T14:55:58.259Z,11
2018-01-17T14:57:00.953Z,10
2018-01-17T14:58:03.671Z,10
2018-01-17T14:59:06.083Z,9
2018-01-17T15:00:08.492Z,8
2018-01-17T15:01:10.907Z,8
2018-01-17T15:02:13.317Z,7
2018-01-17T15:03:15.720Z,7
2018-01-17T15:04:18.133Z,6
2018-01-17T15:05:20.555Z,5
2018-01-17T15:06:22.962Z,5
2018-01-17T15:07:25.368Z,4
2018-01-17T15:08:27.778Z,4
2018-01-17T15:09:30.186Z,4